sensor_id;sensor_type;location;lat;lon;timestamp;P1;durP1;ratioP1;P2;durP2;ratioP2
66127;SDS011;52925;52.436;-1.952;2023-01-13T00:00:54;15.60;;;2.63;;
66127;SDS011;52925;52.436;-1.952;2023-01-13T00:02:17;19.17;;;3.43;;
66127;SDS011;52925;52.436;-1.952;2023-01-13T00:03:37;13.53;;;2.27;;
66127;SDS011;52925;52.436;-1.952;2023-01-13T00:04:58;13.73;;;2.80;;
66127;SDS011;52925;52.436;-1.952;2023-01-13T00:06:20;14.60;;;2.30;;
66127;SDS011;52925;52.436;-1.952;2023-01-13T00:07:43;12.57;;;2.60;;
66127;SDS011;52925;52.436;-1.952;2023-01-13T00:09:06;13.30;;;2.57;;
66127;SDS011;52925;52.436;-1.952;2023-01-13T00:10:27;17.17;;;3.03;;
66127;SDS011;52925;52.436;-1.952;2023-01-13T00:11:48;13.80;;;2.50;;
66127;SDS011;52925;52.436;-1.952;2023-01-13T00:13:09;15.97;;;2.77;;
66127;SDS011;52925;52.436;-1.952;2023-01-13T00:14:32;13.90;;;2.50;;
66127;SDS011;52925;52.436;-1.952;2023-01-13T00:15:55;13.17;;;3.00;;
66127;SDS011;52925;52.436;-1.952;2023-01-13T00:17:18;11.97;;;2.60;;
66127;SDS011;52925;52.436;-1.952;2023-01-13T00:18:38;13.80;;;2.50;;
66127;SDS011;52925;52.436;-1.952;2023-01-13T00:19:59;16.00;;;2.33;;
66127;SDS011;52925;52.436;-1.952;2023-01-13T00:21:21;11.30;;;2.60;;
66127;SDS011;52925;52.436;-1.952;2023-01-13T00:22:42;13.10;;;2.97;;
66127;SDS011;52925;52.436;-1.952;2023-01-13T00:24:02;12.40;;;2.57;;
66127;SDS011;52925;52.436;-1.952;2023-01-13T00:25:23;10.23;;;2.33;;
66127;SDS011;52925;52.436;-1.952;2023-01-13T00:26:44;12.67;;;2.40;;
66127;SDS011;52925;52.436;-1.952;2023-01-13T00:28:04;18.27;;;3.53;;
66127;SDS011;52925;52.436;-1.952;2023-01-13T00:29:27;14.20;;;2.80;;
66127;SDS011;52925;52.436;-1.952;2023-01-13T00:30:47;16.27;;;2.70;;
66127;SDS011;52925;52.436;-1.952;2023-01-13T00:32:09;12.17;;;2.33;;
66127;SDS011;52925;52.436;-1.952;2023-01-13T00:33:31;10.23;;;2.57;;
66127;SDS011;52925;52.436;-1.952;2023-01-13T00:34:51;12.10;;;2.27;;
66127;SDS011;52925;52.436;-1.952;2023-01-13T00:36:13;13.23;;;2.23;;
66127;SDS011;52925;52.436;-1.952;2023-01-13T00:37:34;15.17;;;2.90;;
66127;SDS011;52925;52.436;-1.952;2023-01-13T00:38:56;13.63;;;2.43;;
66127;SDS011;52925;52.436;-1.952;2023-01-13T00:40:18;16.20;;;2.40;;
66127;SDS011;52925;52.436;-1.952;2023-01-13T00:41:39;11.87;;;2.30;;
66127;SDS011;52925;52.436;-1.952;2023-01-13T00:43:18;12.77;;;2.63;;
66127;SDS011;52925;52.436;-1.952;2023-01-13T00:44:40;11.73;;;2.10;;
66127;SDS011;52925;52.436;-1.952;2023-01-13T00:46:02;15.50;;;2.77;;
66127;SDS011;52925;52.436;-1.952;2023-01-13T00:47:23;17.33;;;2.77;;
66127;SDS011;52925;52.436;-1.952;2023-01-13T00:48:44;11.90;;;2.30;;
66127;SDS011;52925;52.436;-1.952;2023-01-13T00:50:06;16.67;;;2.67;;
66127;SDS011;52925;52.436;-1.952;2023-01-13T00:51:27;14.53;;;2.60;;
66127;SDS011;52925;52.436;-1.952;2023-01-13T00:52:47;11.90;;;2.30;;
66127;SDS011;52925;52.436;-1.952;2023-01-13T00:54:08;10.93;;;2.33;;
66127;SDS011;52925;52.436;-1.952;2023-01-13T00:55:29;12.67;;;2.53;;
66127;SDS011;52925;52.436;-1.952;2023-01-13T00:56:50;15.33;;;2.93;;
66127;SDS011;52925;52.436;-1.952;2023-01-13T00:58:11;12.63;;;2.33;;
66127;SDS011;52925;52.436;-1.952;2023-01-13T00:59:32;13.53;;;2.80;;
66127;SDS011;52925;52.436;-1.952;2023-01-13T01:00:53;12.33;;;2.53;;
66127;SDS011;52925;52.436;-1.952;2023-01-13T01:02:13;12.27;;;2.50;;
66127;SDS011;52925;52.436;-1.952;2023-01-13T01:03:35;14.67;;;2.40;;
66127;SDS011;52925;52.436;-1.952;2023-01-13T01:04:58;15.40;;;3.27;;
66127;SDS011;52925;52.436;-1.952;2023-01-13T01:06:20;15.10;;;2.97;;
66127;SDS011;52925;52.436;-1.952;2023-01-13T01:07:41;12.80;;;2.67;;
66127;SDS011;52925;52.436;-1.952;2023-01-13T01:09:03;13.40;;;2.73;;
66127;SDS011;52925;52.436;-1.952;2023-01-13T01:10:23;14.30;;;2.47;;
66127;SDS011;52925;52.436;-1.952;2023-01-13T01:11:44;14.10;;;2.30;;
66127;SDS011;52925;52.436;-1.952;2023-01-13T01:13:04;13.00;;;3.37;;
66127;SDS011;52925;52.436;-1.952;2023-01-13T01:14:26;13.20;;;2.57;;
66127;SDS011;52925;52.436;-1.952;2023-01-13T01:15:46;15.07;;;2.80;;
66127;SDS011;52925;52.436;-1.952;2023-01-13T01:17:07;10.63;;;2.20;;
66127;SDS011;52925;52.436;-1.952;2023-01-13T01:18:29;11.33;;;2.80;;
66127;SDS011;52925;52.436;-1.952;2023-01-13T01:19:49;13.93;;;2.30;;
66127;SDS011;52925;52.436;-1.952;2023-01-13T01:21:11;13.57;;;2.60;;
66127;SDS011;52925;52.436;-1.952;2023-01-13T01:22:31;14.15;;;3.05;;
66127;SDS011;52925;52.436;-1.952;2023-01-13T01:23:53;11.77;;;2.23;;
66127;SDS011;52925;52.436;-1.952;2023-01-13T01:25:13;14.20;;;2.30;;
66127;SDS011;52925;52.436;-1.952;2023-01-13T01:26:34;15.73;;;3.10;;
66127;SDS011;52925;52.436;-1.952;2023-01-13T01:27:55;14.03;;;2.90;;
66127;SDS011;52925;52.436;-1.952;2023-01-13T01:29:15;22.47;;;3.40;;
66127;SDS011;52925;52.436;-1.952;2023-01-13T01:30:37;15.47;;;3.53;;
66127;SDS011;52925;52.436;-1.952;2023-01-13T01:31:57;13.47;;;2.70;;
66127;SDS011;52925;52.436;-1.952;2023-01-13T01:33:19;12.70;;;2.33;;
66127;SDS011;52925;52.436;-1.952;2023-01-13T01:34:39;14.60;;;2.57;;
66127;SDS011;52925;52.436;-1.952;2023-01-13T01:36:00;15.07;;;2.63;;
66127;SDS011;52925;52.436;-1.952;2023-01-13T01:37:21;13.73;;;2.63;;
66127;SDS011;52925;52.436;-1.952;2023-01-13T01:38:43;10.27;;;2.13;;
66127;SDS011;52925;52.436;-1.952;2023-01-13T01:40:04;18.17;;;2.57;;
66127;SDS011;52925;52.436;-1.952;2023-01-13T01:41:27;14.33;;;2.60;;
66127;SDS011;52925;52.436;-1.952;2023-01-13T01:42:47;16.97;;;3.00;;
66127;SDS011;52925;52.436;-1.952;2023-01-13T01:46:11;14.70;;;2.50;;
66127;SDS011;52925;52.436;-1.952;2023-01-13T01:47:31;17.80;;;2.73;;
66127;SDS011;52925;52.436;-1.952;2023-01-13T01:48:53;13.73;;;2.60;;
66127;SDS011;52925;52.436;-1.952;2023-01-13T01:50:14;16.67;;;3.43;;
66127;SDS011;52925;52.436;-1.952;2023-01-13T01:51:37;17.77;;;2.77;;
66127;SDS011;52925;52.436;-1.952;2023-01-13T01:53:05;11.97;;;2.20;;
66127;SDS011;52925;52.436;-1.952;2023-01-13T01:54:27;13.23;;;3.00;;
66127;SDS011;52925;52.436;-1.952;2023-01-13T01:55:51;17.13;;;3.10;;
66127;SDS011;52925;52.436;-1.952;2023-01-13T01:57:12;16.30;;;2.63;;
66127;SDS011;52925;52.436;-1.952;2023-01-13T01:58:36;11.53;;;2.07;;
66127;SDS011;52925;52.436;-1.952;2023-01-13T01:59:59;13.95;;;2.97;;
66127;SDS011;52925;52.436;-1.952;2023-01-13T02:01:31;11.10;;;2.30;;
66127;SDS011;52925;52.436;-1.952;2023-01-13T02:02:52;17.77;;;2.50;;
66127;SDS011;52925;52.436;-1.952;2023-01-13T02:04:14;12.90;;;2.90;;
66127;SDS011;52925;52.436;-1.952;2023-01-13T02:05:36;12.00;;;2.50;;
66127;SDS011;52925;52.436;-1.952;2023-01-13T02:06:57;16.47;;;2.50;;
66127;SDS011;52925;52.436;-1.952;2023-01-13T02:08:20;14.87;;;2.83;;
66127;SDS011;52925;52.436;-1.952;2023-01-13T02:09:41;17.50;;;2.60;;
66127;SDS011;52925;52.436;-1.952;2023-01-13T02:11:01;17.90;;;3.37;;
66127;SDS011;52925;52.436;-1.952;2023-01-13T02:12:23;16.70;;;3.03;;
66127;SDS011;52925;52.436;-1.952;2023-01-13T02:13:47;12.53;;;2.47;;
66127;SDS011;52925;52.436;-1.952;2023-01-13T02:15:07;13.00;;;2.73;;
66127;SDS011;52925;52.436;-1.952;2023-01-13T02:16:29;18.17;;;3.23;;
66127;SDS011;52925;52.436;-1.952;2023-01-13T02:17:57;15.27;;;2.80;;
66127;SDS011;52925;52.436;-1.952;2023-01-13T02:21:11;13.50;;;2.63;;
66127;SDS011;52925;52.436;-1.952;2023-01-13T02:22:39;16.37;;;2.83;;
66127;SDS011;52925;52.436;-1.952;2023-01-13T02:26:18;11.60;;;2.47;;
66127;SDS011;52925;52.436;-1.952;2023-01-13T02:27:56;10.33;;;2.13;;
66127;SDS011;52925;52.436;-1.952;2023-01-13T02:29:28;12.10;;;2.63;;
66127;SDS011;52925;52.436;-1.952;2023-01-13T02:31:12;16.13;;;2.57;;
66127;SDS011;52925;52.436;-1.952;2023-01-13T02:32:56;15.30;;;3.03;;
66127;SDS011;52925;52.436;-1.952;2023-01-13T02:34:21;18.30;;;2.80;;
66127;SDS011;52925;52.436;-1.952;2023-01-13T02:35:44;10.97;;;2.57;;
66127;SDS011;52925;52.436;-1.952;2023-01-13T02:37:09;15.73;;;2.40;;
66127;SDS011;52925;52.436;-1.952;2023-01-13T02:38:34;15.30;;;3.00;;
66127;SDS011;52925;52.436;-1.952;2023-01-13T02:39:56;14.63;;;2.47;;
66127;SDS011;52925;52.436;-1.952;2023-01-13T02:41:20;17.40;;;3.20;;
66127;SDS011;52925;52.436;-1.952;2023-01-13T02:43:03;16.90;;;2.67;;
66127;SDS011;52925;52.436;-1.952;2023-01-13T02:44:45;17.87;;;2.50;;
66127;SDS011;52925;52.436;-1.952;2023-01-13T02:46:08;14.90;;;2.23;;
66127;SDS011;52925;52.436;-1.952;2023-01-13T02:47:31;15.03;;;2.67;;
66127;SDS011;52925;52.436;-1.952;2023-01-13T02:48:53;14.43;;;3.10;;
66127;SDS011;52925;52.436;-1.952;2023-01-13T02:50:16;14.50;;;2.50;;
66127;SDS011;52925;52.436;-1.952;2023-01-13T02:51:38;15.13;;;2.70;;
66127;SDS011;52925;52.436;-1.952;2023-01-13T02:53:00;17.77;;;2.87;;
66127;SDS011;52925;52.436;-1.952;2023-01-13T02:54:23;10.23;;;2.43;;
66127;SDS011;52925;52.436;-1.952;2023-01-13T02:55:45;14.03;;;2.70;;
66127;SDS011;52925;52.436;-1.952;2023-01-13T02:57:08;14.47;;;2.70;;
66127;SDS011;52925;52.436;-1.952;2023-01-13T02:58:30;11.40;;;2.10;;
66127;SDS011;52925;52.436;-1.952;2023-01-13T02:59:54;13.77;;;2.13;;
66127;SDS011;52925;52.436;-1.952;2023-01-13T03:01:14;10.57;;;2.13;;
66127;SDS011;52925;52.436;-1.952;2023-01-13T03:02:36;12.53;;;3.03;;
66127;SDS011;52925;52.436;-1.952;2023-01-13T03:03:56;15.40;;;3.47;;
66127;SDS011;52925;52.436;-1.952;2023-01-13T03:05:17;12.27;;;2.27;;
66127;SDS011;52925;52.436;-1.952;2023-01-13T03:06:41;12.80;;;2.90;;
66127;SDS011;52925;52.436;-1.952;2023-01-13T03:08:10;10.77;;;2.13;;
66127;SDS011;52925;52.436;-1.952;2023-01-13T03:09:37;15.27;;;2.60;;
66127;SDS011;52925;52.436;-1.952;2023-01-13T03:11:02;13.00;;;2.43;;
66127;SDS011;52925;52.436;-1.952;2023-01-13T03:12:26;12.83;;;1.77;;
66127;SDS011;52925;52.436;-1.952;2023-01-13T03:13:56;10.93;;;2.85;;
66127;SDS011;52925;52.436;-1.952;2023-01-13T03:15:23;13.37;;;2.33;;
66127;SDS011;52925;52.436;-1.952;2023-01-13T03:17:02;14.73;;;2.50;;
66127;SDS011;52925;52.436;-1.952;2023-01-13T03:18:27;14.03;;;2.27;;
66127;SDS011;52925;52.436;-1.952;2023-01-13T03:19:53;10.03;;;2.07;;
66127;SDS011;52925;52.436;-1.952;2023-01-13T03:21:18;16.93;;;2.80;;
66127;SDS011;52925;52.436;-1.952;2023-01-13T03:22:42;13.20;;;2.30;;
66127;SDS011;52925;52.436;-1.952;2023-01-13T03:24:05;13.57;;;2.30;;
66127;SDS011;52925;52.436;-1.952;2023-01-13T03:25:26;10.70;;;1.77;;
66127;SDS011;52925;52.436;-1.952;2023-01-13T03:26:49;12.57;;;1.87;;
66127;SDS011;52925;52.436;-1.952;2023-01-13T03:28:13;11.93;;;2.47;;
66127;SDS011;52925;52.436;-1.952;2023-01-13T03:29:36;11.27;;;2.40;;
66127;SDS011;52925;52.436;-1.952;2023-01-13T03:31:02;11.83;;;2.13;;
66127;SDS011;52925;52.436;-1.952;2023-01-13T03:32:24;10.87;;;2.23;;
66127;SDS011;52925;52.436;-1.952;2023-01-13T03:33:47;14.90;;;2.50;;
66127;SDS011;52925;52.436;-1.952;2023-01-13T03:35:10;10.73;;;1.93;;
66127;SDS011;52925;52.436;-1.952;2023-01-13T03:36:33;14.10;;;2.13;;
66127;SDS011;52925;52.436;-1.952;2023-01-13T03:37:57;11.73;;;2.63;;
66127;SDS011;52925;52.436;-1.952;2023-01-13T03:39:20;15.40;;;2.20;;
66127;SDS011;52925;52.436;-1.952;2023-01-13T03:40:43;15.77;;;2.63;;
66127;SDS011;52925;52.436;-1.952;2023-01-13T03:42:06;11.98;;;1.95;;
66127;SDS011;52925;52.436;-1.952;2023-01-13T03:43:28;15.40;;;2.57;;
66127;SDS011;52925;52.436;-1.952;2023-01-13T03:45:06;11.87;;;2.50;;
66127;SDS011;52925;52.436;-1.952;2023-01-13T03:46:36;12.07;;;2.63;;
66127;SDS011;52925;52.436;-1.952;2023-01-13T03:47:57;13.63;;;1.90;;
66127;SDS011;52925;52.436;-1.952;2023-01-13T03:49:21;11.30;;;2.60;;
66127;SDS011;52925;52.436;-1.952;2023-01-13T03:50:43;14.60;;;2.43;;
66127;SDS011;52925;52.436;-1.952;2023-01-13T03:52:06;11.60;;;2.30;;
66127;SDS011;52925;52.436;-1.952;2023-01-13T03:53:28;11.57;;;2.10;;
66127;SDS011;52925;52.436;-1.952;2023-01-13T03:54:50;15.77;;;2.30;;
66127;SDS011;52925;52.436;-1.952;2023-01-13T03:56:15;12.43;;;2.00;;
66127;SDS011;52925;52.436;-1.952;2023-01-13T03:57:37;12.90;;;2.30;;
66127;SDS011;52925;52.436;-1.952;2023-01-13T03:58:59;12.07;;;2.20;;
66127;SDS011;52925;52.436;-1.952;2023-01-13T04:00:24;13.02;;;2.10;;
66127;SDS011;52925;52.436;-1.952;2023-01-13T04:01:47;13.57;;;2.43;;
66127;SDS011;52925;52.436;-1.952;2023-01-13T04:03:11;12.30;;;2.13;;
66127;SDS011;52925;52.436;-1.952;2023-01-13T04:04:36;13.60;;;2.20;;
66127;SDS011;52925;52.436;-1.952;2023-01-13T04:06:01;11.43;;;2.27;;
66127;SDS011;52925;52.436;-1.952;2023-01-13T04:07:29;11.47;;;1.97;;
66127;SDS011;52925;52.436;-1.952;2023-01-13T04:08:53;10.07;;;1.77;;
66127;SDS011;52925;52.436;-1.952;2023-01-13T04:10:15;12.77;;;1.73;;
66127;SDS011;52925;52.436;-1.952;2023-01-13T04:11:38;7.37;;;1.67;;
66127;SDS011;52925;52.436;-1.952;2023-01-13T04:13:02;10.80;;;2.17;;
66127;SDS011;52925;52.436;-1.952;2023-01-13T04:14:26;13.33;;;2.37;;
66127;SDS011;52925;52.436;-1.952;2023-01-13T04:15:47;9.33;;;1.40;;
66127;SDS011;52925;52.436;-1.952;2023-01-13T04:17:10;9.03;;;1.50;;
66127;SDS011;52925;52.436;-1.952;2023-01-13T04:18:31;9.97;;;1.67;;
66127;SDS011;52925;52.436;-1.952;2023-01-13T04:19:51;8.60;;;1.23;;
66127;SDS011;52925;52.436;-1.952;2023-01-13T04:21:12;5.67;;;1.60;;
66127;SDS011;52925;52.436;-1.952;2023-01-13T04:22:32;10.27;;;1.80;;
66127;SDS011;52925;52.436;-1.952;2023-01-13T04:23:52;8.00;;;1.37;;
66127;SDS011;52925;52.436;-1.952;2023-01-13T04:25:14;7.43;;;1.43;;
66127;SDS011;52925;52.436;-1.952;2023-01-13T04:26:34;6.73;;;1.07;;
66127;SDS011;52925;52.436;-1.952;2023-01-13T04:27:54;8.03;;;1.80;;
66127;SDS011;52925;52.436;-1.952;2023-01-13T04:29:16;6.87;;;1.60;;
66127;SDS011;52925;52.436;-1.952;2023-01-13T04:30:37;6.07;;;1.38;;
66127;SDS011;52925;52.436;-1.952;2023-01-13T04:31:58;6.85;;;1.35;;
66127;SDS011;52925;52.436;-1.952;2023-01-13T04:33:20;7.85;;;1.50;;
66127;SDS011;52925;52.436;-1.952;2023-01-13T04:34:41;7.93;;;1.63;;
66127;SDS011;52925;52.436;-1.952;2023-01-13T04:36:04;9.60;;;1.43;;
66127;SDS011;52925;52.436;-1.952;2023-01-13T04:37:25;10.50;;;1.57;;
66127;SDS011;52925;52.436;-1.952;2023-01-13T04:38:46;7.00;;;1.03;;
66127;SDS011;52925;52.436;-1.952;2023-01-13T04:40:08;5.90;;;1.00;;
66127;SDS011;52925;52.436;-1.952;2023-01-13T04:41:28;5.27;;;1.17;;
66127;SDS011;52925;52.436;-1.952;2023-01-13T04:43:11;6.60;;;1.30;;
66127;SDS011;52925;52.436;-1.952;2023-01-13T04:44:31;9.27;;;1.10;;
66127;SDS011;52925;52.436;-1.952;2023-01-13T04:45:54;7.50;;;1.40;;
66127;SDS011;52925;52.436;-1.952;2023-01-13T04:47:15;4.23;;;1.10;;
66127;SDS011;52925;52.436;-1.952;2023-01-13T04:48:38;5.77;;;1.00;;
66127;SDS011;52925;52.436;-1.952;2023-01-13T04:49:59;4.57;;;0.83;;
66127;SDS011;52925;52.436;-1.952;2023-01-13T04:51:19;6.80;;;1.00;;
66127;SDS011;52925;52.436;-1.952;2023-01-13T04:52:40;3.53;;;0.93;;
66127;SDS011;52925;52.436;-1.952;2023-01-13T04:54:00;4.33;;;0.60;;
66127;SDS011;52925;52.436;-1.952;2023-01-13T04:55:22;5.78;;;1.40;;
66127;SDS011;52925;52.436;-1.952;2023-01-13T04:56:43;6.93;;;1.00;;
66127;SDS011;52925;52.436;-1.952;2023-01-13T04:58:03;4.03;;;0.73;;
66127;SDS011;52925;52.436;-1.952;2023-01-13T04:59:24;6.50;;;1.20;;
66127;SDS011;52925;52.436;-1.952;2023-01-13T05:00:46;6.27;;;1.20;;
66127;SDS011;52925;52.436;-1.952;2023-01-13T05:02:06;5.90;;;0.90;;
66127;SDS011;52925;52.436;-1.952;2023-01-13T05:03:27;7.20;;;0.97;;
66127;SDS011;52925;52.436;-1.952;2023-01-13T05:04:50;4.80;;;0.70;;
66127;SDS011;52925;52.436;-1.952;2023-01-13T05:06:10;7.37;;;1.10;;
66127;SDS011;52925;52.436;-1.952;2023-01-13T05:07:31;4.13;;;0.70;;
66127;SDS011;52925;52.436;-1.952;2023-01-13T05:08:52;4.77;;;0.70;;
66127;SDS011;52925;52.436;-1.952;2023-01-13T05:10:12;6.80;;;0.80;;
66127;SDS011;52925;52.436;-1.952;2023-01-13T05:11:33;6.70;;;0.87;;
66127;SDS011;52925;52.436;-1.952;2023-01-13T05:13:12;2.17;;;0.77;;
66127;SDS011;52925;52.436;-1.952;2023-01-13T05:14:50;4.27;;;0.90;;
66127;SDS011;52925;52.436;-1.952;2023-01-13T05:16:29;5.30;;;0.80;;
66127;SDS011;52925;52.436;-1.952;2023-01-13T05:18:08;4.90;;;1.00;;
66127;SDS011;52925;52.436;-1.952;2023-01-13T05:19:30;5.63;;;0.60;;
66127;SDS011;52925;52.436;-1.952;2023-01-13T05:20:53;3.53;;;0.80;;
66127;SDS011;52925;52.436;-1.952;2023-01-13T05:22:13;5.77;;;1.20;;
66127;SDS011;52925;52.436;-1.952;2023-01-13T05:23:52;5.13;;;1.00;;
66127;SDS011;52925;52.436;-1.952;2023-01-13T05:25:32;4.93;;;0.70;;
66127;SDS011;52925;52.436;-1.952;2023-01-13T05:26:53;3.40;;;0.90;;
66127;SDS011;52925;52.436;-1.952;2023-01-13T05:28:14;5.13;;;0.90;;
66127;SDS011;52925;52.436;-1.952;2023-01-13T05:29:34;3.70;;;0.73;;
66127;SDS011;52925;52.436;-1.952;2023-01-13T05:30:55;3.80;;;0.87;;
66127;SDS011;52925;52.436;-1.952;2023-01-13T05:32:15;5.27;;;0.97;;
66127;SDS011;52925;52.436;-1.952;2023-01-13T05:33:36;4.13;;;1.03;;
66127;SDS011;52925;52.436;-1.952;2023-01-13T05:34:57;2.93;;;0.50;;
66127;SDS011;52925;52.436;-1.952;2023-01-13T05:36:19;6.03;;;0.77;;
66127;SDS011;52925;52.436;-1.952;2023-01-13T05:37:40;2.93;;;0.90;;
66127;SDS011;52925;52.436;-1.952;2023-01-13T05:39:01;3.67;;;0.83;;
66127;SDS011;52925;52.436;-1.952;2023-01-13T05:40:23;7.17;;;1.10;;
66127;SDS011;52925;52.436;-1.952;2023-01-13T05:42:02;4.10;;;0.67;;
66127;SDS011;52925;52.436;-1.952;2023-01-13T05:43:41;3.60;;;0.73;;
66127;SDS011;52925;52.436;-1.952;2023-01-13T05:45:01;4.53;;;0.90;;
66127;SDS011;52925;52.436;-1.952;2023-01-13T05:46:22;3.03;;;0.90;;
66127;SDS011;52925;52.436;-1.952;2023-01-13T05:47:44;3.87;;;0.60;;
66127;SDS011;52925;52.436;-1.952;2023-01-13T05:49:04;6.80;;;0.80;;
66127;SDS011;52925;52.436;-1.952;2023-01-13T05:50:25;5.77;;;1.00;;
66127;SDS011;52925;52.436;-1.952;2023-01-13T05:51:46;4.60;;;0.70;;
66127;SDS011;52925;52.436;-1.952;2023-01-13T05:53:07;4.47;;;0.93;;
66127;SDS011;52925;52.436;-1.952;2023-01-13T05:54:27;5.50;;;0.63;;
66127;SDS011;52925;52.436;-1.952;2023-01-13T05:55:49;2.67;;;0.60;;
66127;SDS011;52925;52.436;-1.952;2023-01-13T05:57:10;2.43;;;0.73;;
66127;SDS011;52925;52.436;-1.952;2023-01-13T05:58:30;3.67;;;0.77;;
66127;SDS011;52925;52.436;-1.952;2023-01-13T05:59:51;3.30;;;0.90;;
66127;SDS011;52925;52.436;-1.952;2023-01-13T06:01:11;4.47;;;0.80;;
66127;SDS011;52925;52.436;-1.952;2023-01-13T06:02:32;2.80;;;0.60;;
66127;SDS011;52925;52.436;-1.952;2023-01-13T06:03:52;2.90;;;0.50;;
66127;SDS011;52925;52.436;-1.952;2023-01-13T06:05:13;4.67;;;0.70;;
66127;SDS011;52925;52.436;-1.952;2023-01-13T06:06:33;4.17;;;1.13;;
66127;SDS011;52925;52.436;-1.952;2023-01-13T06:07:56;2.83;;;0.53;;
66127;SDS011;52925;52.436;-1.952;2023-01-13T06:09:16;3.50;;;0.60;;
66127;SDS011;52925;52.436;-1.952;2023-01-13T06:10:38;3.37;;;0.63;;
66127;SDS011;52925;52.436;-1.952;2023-01-13T06:12:00;6.07;;;0.90;;
66127;SDS011;52925;52.436;-1.952;2023-01-13T06:13:21;4.25;;;0.70;;
66127;SDS011;52925;52.436;-1.952;2023-01-13T06:14:43;4.20;;;0.90;;
66127;SDS011;52925;52.436;-1.952;2023-01-13T06:16:04;4.17;;;1.00;;
66127;SDS011;52925;52.436;-1.952;2023-01-13T06:17:26;2.13;;;0.53;;
66127;SDS011;52925;52.436;-1.952;2023-01-13T06:18:46;4.50;;;0.68;;
66127;SDS011;52925;52.436;-1.952;2023-01-13T06:20:08;3.67;;;0.73;;
66127;SDS011;52925;52.436;-1.952;2023-01-13T06:21:28;4.27;;;0.60;;
66127;SDS011;52925;52.436;-1.952;2023-01-13T06:22:51;3.83;;;1.00;;
66127;SDS011;52925;52.436;-1.952;2023-01-13T06:24:12;4.80;;;0.80;;
66127;SDS011;52925;52.436;-1.952;2023-01-13T06:25:37;3.23;;;0.70;;
66127;SDS011;52925;52.436;-1.952;2023-01-13T06:26:59;3.83;;;0.77;;
66127;SDS011;52925;52.436;-1.952;2023-01-13T06:28:20;4.23;;;0.87;;
66127;SDS011;52925;52.436;-1.952;2023-01-13T06:29:41;4.73;;;0.70;;
66127;SDS011;52925;52.436;-1.952;2023-01-13T06:31:02;3.77;;;0.80;;
66127;SDS011;52925;52.436;-1.952;2023-01-13T06:32:25;2.47;;;0.90;;
66127;SDS011;52925;52.436;-1.952;2023-01-13T06:33:47;4.43;;;0.90;;
66127;SDS011;52925;52.436;-1.952;2023-01-13T06:35:10;3.87;;;0.77;;
66127;SDS011;52925;52.436;-1.952;2023-01-13T06:36:33;2.93;;;0.70;;
66127;SDS011;52925;52.436;-1.952;2023-01-13T06:37:55;5.80;;;0.80;;
66127;SDS011;52925;52.436;-1.952;2023-01-13T06:39:20;4.13;;;0.77;;
66127;SDS011;52925;52.436;-1.952;2023-01-13T06:40:42;4.30;;;0.70;;
66127;SDS011;52925;52.436;-1.952;2023-01-13T06:42:03;4.87;;;0.87;;
66127;SDS011;52925;52.436;-1.952;2023-01-13T06:43:50;7.20;;;0.80;;
66127;SDS011;52925;52.436;-1.952;2023-01-13T06:45:10;2.93;;;0.67;;
66127;SDS011;52925;52.436;-1.952;2023-01-13T06:46:32;4.57;;;0.77;;
66127;SDS011;52925;52.436;-1.952;2023-01-13T06:47:53;2.97;;;0.60;;
66127;SDS011;52925;52.436;-1.952;2023-01-13T06:49:15;2.80;;;0.70;;
66127;SDS011;52925;52.436;-1.952;2023-01-13T06:50:36;5.40;;;1.07;;
66127;SDS011;52925;52.436;-1.952;2023-01-13T06:51:56;3.87;;;0.77;;
66127;SDS011;52925;52.436;-1.952;2023-01-13T06:53:17;4.40;;;1.10;;
66127;SDS011;52925;52.436;-1.952;2023-01-13T06:54:39;5.93;;;0.60;;
66127;SDS011;52925;52.436;-1.952;2023-01-13T06:55:59;3.23;;;0.60;;
66127;SDS011;52925;52.436;-1.952;2023-01-13T06:57:20;5.40;;;0.87;;
66127;SDS011;52925;52.436;-1.952;2023-01-13T06:58:40;4.03;;;0.70;;
66127;SDS011;52925;52.436;-1.952;2023-01-13T07:00:02;3.73;;;0.73;;
66127;SDS011;52925;52.436;-1.952;2023-01-13T07:01:23;3.90;;;0.67;;
66127;SDS011;52925;52.436;-1.952;2023-01-13T07:02:45;4.53;;;1.20;;
66127;SDS011;52925;52.436;-1.952;2023-01-13T07:04:06;3.10;;;0.67;;
66127;SDS011;52925;52.436;-1.952;2023-01-13T07:05:27;4.20;;;0.70;;
66127;SDS011;52925;52.436;-1.952;2023-01-13T07:06:48;4.70;;;0.90;;
66127;SDS011;52925;52.436;-1.952;2023-01-13T07:08:09;4.30;;;0.85;;
66127;SDS011;52925;52.436;-1.952;2023-01-13T07:09:29;6.40;;;0.90;;
66127;SDS011;52925;52.436;-1.952;2023-01-13T07:10:52;4.37;;;0.80;;
66127;SDS011;52925;52.436;-1.952;2023-01-13T07:12:13;7.33;;;1.03;;
66127;SDS011;52925;52.436;-1.952;2023-01-13T07:13:33;4.83;;;0.97;;
66127;SDS011;52925;52.436;-1.952;2023-01-13T07:15:12;4.40;;;0.83;;
66127;SDS011;52925;52.436;-1.952;2023-01-13T07:16:42;5.47;;;0.90;;
66127;SDS011;52925;52.436;-1.952;2023-01-13T07:18:03;7.43;;;0.90;;
66127;SDS011;52925;52.436;-1.952;2023-01-13T07:19:25;5.27;;;1.00;;
66127;SDS011;52925;52.436;-1.952;2023-01-13T07:20:50;4.63;;;0.93;;
66127;SDS011;52925;52.436;-1.952;2023-01-13T07:22:12;2.77;;;0.80;;
66127;SDS011;52925;52.436;-1.952;2023-01-13T07:23:34;5.63;;;1.30;;
66127;SDS011;52925;52.436;-1.952;2023-01-13T07:24:55;6.97;;;1.23;;
66127;SDS011;52925;52.436;-1.952;2023-01-13T07:26:18;3.90;;;0.77;;
66127;SDS011;52925;52.436;-1.952;2023-01-13T07:27:39;4.73;;;1.33;;
66127;SDS011;52925;52.436;-1.952;2023-01-13T07:29:00;5.23;;;0.97;;
66127;SDS011;52925;52.436;-1.952;2023-01-13T07:30:21;4.30;;;1.10;;
66127;SDS011;52925;52.436;-1.952;2023-01-13T07:31:42;4.57;;;1.07;;
66127;SDS011;52925;52.436;-1.952;2023-01-13T07:33:03;6.40;;;0.97;;
66127;SDS011;52925;52.436;-1.952;2023-01-13T07:34:24;5.20;;;1.00;;
66127;SDS011;52925;52.436;-1.952;2023-01-13T07:35:46;6.67;;;1.43;;
66127;SDS011;52925;52.436;-1.952;2023-01-13T07:37:07;5.10;;;1.00;;
66127;SDS011;52925;52.436;-1.952;2023-01-13T07:38:28;7.23;;;1.23;;
66127;SDS011;52925;52.436;-1.952;2023-01-13T07:39:50;7.40;;;1.13;;
66127;SDS011;52925;52.436;-1.952;2023-01-13T07:41:11;4.87;;;0.97;;
66127;SDS011;52925;52.436;-1.952;2023-01-13T07:42:52;5.03;;;1.00;;
66127;SDS011;52925;52.436;-1.952;2023-01-13T07:44:30;5.07;;;1.20;;
66127;SDS011;52925;52.436;-1.952;2023-01-13T07:45:54;6.57;;;1.10;;
66127;SDS011;52925;52.436;-1.952;2023-01-13T07:47:14;9.27;;;1.10;;
66127;SDS011;52925;52.436;-1.952;2023-01-13T07:48:36;5.90;;;1.10;;
66127;SDS011;52925;52.436;-1.952;2023-01-13T07:49:57;6.33;;;1.00;;
66127;SDS011;52925;52.436;-1.952;2023-01-13T07:51:19;4.20;;;1.00;;
66127;SDS011;52925;52.436;-1.952;2023-01-13T07:52:40;4.43;;;0.90;;
66127;SDS011;52925;52.436;-1.952;2023-01-13T07:54:01;6.77;;;0.90;;
66127;SDS011;52925;52.436;-1.952;2023-01-13T07:55:22;9.33;;;1.40;;
66127;SDS011;52925;52.436;-1.952;2023-01-13T07:56:44;6.57;;;1.00;;
66127;SDS011;52925;52.436;-1.952;2023-01-13T07:58:06;7.90;;;1.10;;
66127;SDS011;52925;52.436;-1.952;2023-01-13T07:59:28;3.53;;;0.90;;
66127;SDS011;52925;52.436;-1.952;2023-01-13T08:00:49;7.47;;;1.30;;
66127;SDS011;52925;52.436;-1.952;2023-01-13T08:02:10;5.87;;;1.00;;
66127;SDS011;52925;52.436;-1.952;2023-01-13T08:03:32;7.30;;;1.27;;
66127;SDS011;52925;52.436;-1.952;2023-01-13T08:04:53;3.93;;;1.07;;
66127;SDS011;52925;52.436;-1.952;2023-01-13T08:06:14;7.57;;;1.30;;
66127;SDS011;52925;52.436;-1.952;2023-01-13T08:07:35;4.37;;;1.07;;
66127;SDS011;52925;52.436;-1.952;2023-01-13T08:08:56;7.17;;;1.10;;
66127;SDS011;52925;52.436;-1.952;2023-01-13T08:10:17;9.63;;;1.33;;
66127;SDS011;52925;52.436;-1.952;2023-01-13T08:11:38;5.97;;;1.07;;
66127;SDS011;52925;52.436;-1.952;2023-01-13T08:12:59;7.47;;;1.43;;
66127;SDS011;52925;52.436;-1.952;2023-01-13T08:14:40;5.75;;;1.67;;
66127;SDS011;52925;52.436;-1.952;2023-01-13T08:16:01;6.30;;;0.90;;